sensor_id;sensor_type;location;lat;lon;timestamp;pressure;altitude;pressure_sealevel;temperature;humidity
72124;BME280;63818;37.134;-8.548;2023-03-04T00:01:43;101671.4;;;12.8;57.9
72124;BME280;63818;37.134;-8.548;2023-03-04T00:06:32;101669.6;;;12.8;57.4
72124;BME280;63818;37.134;-8.548;2023-03-04T00:11:17;101663.5;;;12.7;57.4
72124;BME280;63818;37.134;-8.548;2023-03-04T00:16:04;101665.0;;;12.7;57.9
72124;BME280;63818;37.134;-8.548;2023-03-04T00:20:53;101657.0;;;12.6;58.0
72124;BME280;63818;37.134;-8.548;2023-03-04T00:25:39;101648.4;;;12.6;58.1
72124;BME280;63818;37.134;-8.548;2023-03-04T00:30:25;101650.6;;;12.6;58.0
72124;BME280;63818;37.134;-8.548;2023-03-04T00:35:13;101647.1;;;12.6;57.2
72124;BME280;63818;37.134;-8.548;2023-03-04T00:39:59;101651.4;;;12.6;57.3
72124;BME280;63818;37.134;-8.548;2023-03-04T00:44:46;101655.7;;;12.6;57.4
72124;BME280;63818;37.134;-8.548;2023-03-04T00:49:32;101652.2;;;12.6;57.1
72124;BME280;63818;37.134;-8.548;2023-03-04T00:54:20;101648.7;;;12.6;56.2
72124;BME280;63818;37.134;-8.548;2023-03-04T00:59:06;101649.7;;;12.5;55.7
72124;BME280;63818;37.134;-8.548;2023-03-04T01:03:52;101651.9;;;12.5;54.6
72124;BME280;63818;37.134;-8.548;2023-03-04T01:08:39;101644.4;;;12.4;54.1
72124;BME280;63818;37.134;-8.548;2023-03-04T01:13:30;101635.2;;;12.4;53.9
72124;BME280;63818;37.134;-8.548;2023-03-04T01:18:17;101620.4;;;12.4;53.3
72124;BME280;63818;37.134;-8.548;2023-03-04T01:23:06;101622.0;;;12.4;53.6
72124;BME280;63818;37.134;-8.548;2023-03-04T01:27:51;101613.2;;;12.4;53.8
72124;BME280;63818;37.134;-8.548;2023-03-04T01:32:42;101611.7;;;12.4;53.6
72124;BME280;63818;37.134;-8.548;2023-03-04T01:37:29;101605.3;;;12.3;53.6
72124;BME280;63818;37.134;-8.548;2023-03-04T01:42:17;101599.5;;;12.2;53.9
72124;BME280;63818;37.134;-8.548;2023-03-04T01:47:04;101604.0;;;12.2;54.0
72124;BME280;63818;37.134;-8.548;2023-03-04T01:51:52;101604.6;;;12.3;54.0
72124;BME280;63818;37.134;-8.548;2023-03-04T01:56:39;101591.7;;;12.2;53.8
72124;BME280;63818;37.134;-8.548;2023-03-04T02:01:25;101589.9;;;12.2;54.1
72124;BME280;63818;37.134;-8.548;2023-03-04T02:06:16;101585.4;;;12.1;54.1
72124;BME280;63818;37.134;-8.548;2023-03-04T02:11:05;101578.1;;;12.1;54.1
72124;BME280;63818;37.134;-8.548;2023-03-04T02:15:51;101576.5;;;12.1;54.2
72124;BME280;63818;37.134;-8.548;2023-03-04T02:20:44;101571.4;;;12.1;54.2
72124;BME280;63818;37.134;-8.548;2023-03-04T02:25:37;101580.3;;;12.1;54.3
72124;BME280;63818;37.134;-8.548;2023-03-04T02:30:29;101564.1;;;12.1;54.4
72124;BME280;63818;37.134;-8.548;2023-03-04T02:35:16;101571.2;;;12.1;54.1
72124;BME280;63818;37.134;-8.548;2023-03-04T02:45:26;101573.6;;;12.0;55.0
72124;BME280;63818;37.134;-8.548;2023-03-04T02:50:18;101577.1;;;11.9;55.8
72124;BME280;63818;37.134;-8.548;2023-03-04T02:55:07;101568.5;;;11.9;56.0
72124;BME280;63818;37.134;-8.548;2023-03-04T03:00:02;101569.1;;;11.9;56.1
72124;BME280;63818;37.134;-8.548;2023-03-04T03:04:48;101565.8;;;11.9;56.3
72124;BME280;63818;37.134;-8.548;2023-03-04T03:09:36;101553.4;;;11.9;56.6
72124;BME280;63818;37.134;-8.548;2023-03-04T03:14:22;101554.4;;;11.8;56.9
72124;BME280;63818;37.134;-8.548;2023-03-04T03:19:08;101531.0;;;11.8;56.9
72124;BME280;63818;37.134;-8.548;2023-03-04T03:23:58;101532.4;;;11.8;57.6
72124;BME280;63818;37.134;-8.548;2023-03-04T03:28:44;101522.5;;;11.7;57.6
72124;BME280;63818;37.134;-8.548;2023-03-04T03:33:31;101515.8;;;11.7;57.6
72124;BME280;63818;37.134;-8.548;2023-03-04T03:38:19;101514.5;;;11.7;57.3
72124;BME280;63818;37.134;-8.548;2023-03-04T03:43:04;101505.3;;;11.7;57.5
72124;BME280;63818;37.134;-8.548;2023-03-04T03:47:52;101511.6;;;11.6;57.6
72124;BME280;63818;37.134;-8.548;2023-03-04T03:52:38;101504.9;;;11.6;57.5
72124;BME280;63818;37.134;-8.548;2023-03-04T03:57:24;101508.5;;;11.6;58.0
72124;BME280;63818;37.134;-8.548;2023-03-04T04:02:10;101505.8;;;11.6;58.8
72124;BME280;63818;37.134;-8.548;2023-03-04T04:06:56;101507.5;;;11.5;58.8
72124;BME280;63818;37.134;-8.548;2023-03-04T04:11:42;101508.6;;;11.5;59.0
72124;BME280;63818;37.134;-8.548;2023-03-04T04:16:28;101513.4;;;11.6;58.6
72124;BME280;63818;37.134;-8.548;2023-03-04T04:21:14;101520.9;;;11.5;59.2
72124;BME280;63818;37.134;-8.548;2023-03-04T04:26:10;101510.2;;;11.5;59.1
72124;BME280;63818;37.134;-8.548;2023-03-04T04:30:56;101507.8;;;11.5;59.4
72124;BME280;63818;37.134;-8.548;2023-03-04T04:35:41;101514.6;;;11.5;59.7
72124;BME280;63818;37.134;-8.548;2023-03-04T04:40:29;101520.7;;;11.5;59.6
72124;BME280;63818;37.134;-8.548;2023-03-04T04:45:15;101525.6;;;11.5;59.5
72124;BME280;63818;37.134;-8.548;2023-03-04T04:50:03;101522.1;;;11.5;59.9
72124;BME280;63818;37.134;-8.548;2023-03-04T04:54:52;101530.8;;;11.4;60.0
72124;BME280;63818;37.134;-8.548;2023-03-04T04:59:38;101530.2;;;11.5;60.2
72124;BME280;63818;37.134;-8.548;2023-03-04T05:04:24;101518.6;;;11.5;60.6
72124;BME280;63818;37.134;-8.548;2023-03-04T05:09:13;101520.2;;;11.5;60.4
72124;BME280;63818;37.134;-8.548;2023-03-04T05:14:04;101514.6;;;11.4;60.6
72124;BME280;63818;37.134;-8.548;2023-03-04T05:18:50;101505.2;;;11.4;60.5
72124;BME280;63818;37.134;-8.548;2023-03-04T05:23:38;101506.3;;;11.4;60.8
72124;BME280;63818;37.134;-8.548;2023-03-04T05:28:26;101517.4;;;11.4;60.8
72124;BME280;63818;37.134;-8.548;2023-03-04T05:33:13;101523.9;;;11.4;60.5
72124;BME280;63818;37.134;-8.548;2023-03-04T05:38:00;101533.0;;;11.4;60.7
72124;BME280;63818;37.134;-8.548;2023-03-04T05:42:45;101526.9;;;11.4;60.9
72124;BME280;63818;37.134;-8.548;2023-03-04T05:47:33;101540.0;;;11.4;61.0
72124;BME280;63818;37.134;-8.548;2023-03-04T05:52:25;101540.3;;;11.4;61.1
72124;BME280;63818;37.134;-8.548;2023-03-04T05:57:11;101540.0;;;11.4;61.2
72124;BME280;63818;37.134;-8.548;2023-03-04T06:02:03;101558.9;;;11.3;62.0
72124;BME280;63818;37.134;-8.548;2023-03-04T06:06:49;101562.2;;;11.3;62.0
72124;BME280;63818;37.134;-8.548;2023-03-04T06:11:38;101564.1;;;11.3;62.5
72124;BME280;63818;37.134;-8.548;2023-03-04T06:16:28;101570.0;;;11.3;62.5
72124;BME280;63818;37.134;-8.548;2023-03-04T06:21:14;101568.1;;;11.3;62.6
72124;BME280;63818;37.134;-8.548;2023-03-04T06:26:00;101577.9;;;11.2;62.5
72124;BME280;63818;37.134;-8.548;2023-03-04T06:30:52;101580.0;;;11.2;62.5
72124;BME280;63818;37.134;-8.548;2023-03-04T06:35:38;101576.8;;;11.2;62.5
72124;BME280;63818;37.134;-8.548;2023-03-04T06:40:24;101591.3;;;11.2;62.9
72124;BME280;63818;37.134;-8.548;2023-03-04T06:45:10;101597.3;;;11.2;63.2
72124;BME280;63818;37.134;-8.548;2023-03-04T06:50:01;101586.0;;;11.2;63.5
72124;BME280;63818;37.134;-8.548;2023-03-04T06:54:47;101590.0;;;11.2;63.9
72124;BME280;63818;37.134;-8.548;2023-03-04T06:59:34;101598.2;;;11.3;64.3
72124;BME280;63818;37.134;-8.548;2023-03-04T07:04:19;101594.3;;;11.3;64.5
72124;BME280;63818;37.134;-8.548;2023-03-04T07:09:16;101597.7;;;11.3;65.5
72124;BME280;63818;37.134;-8.548;2023-03-04T07:14:02;101603.3;;;11.4;65.6
72124;BME280;63818;37.134;-8.548;2023-03-04T07:18:49;101602.7;;;11.4;65.7
72124;BME280;63818;37.134;-8.548;2023-03-04T07:23:35;101609.7;;;11.4;65.5
72124;BME280;63818;37.134;-8.548;2023-03-04T07:28:27;101619.9;;;11.4;65.0
72124;BME280;63818;37.134;-8.548;2023-03-04T07:33:16;101613.7;;;11.4;64.9
72124;BME280;63818;37.134;-8.548;2023-03-04T07:38:02;101613.9;;;11.4;64.8
72124;BME280;63818;37.134;-8.548;2023-03-04T07:42:53;101621.4;;;11.5;64.6
72124;BME280;63818;37.134;-8.548;2023-03-04T07:47:39;101622.2;;;11.5;64.3
72124;BME280;63818;37.134;-8.548;2023-03-04T07:52:27;101623.8;;;11.5;63.8
72124;BME280;63818;37.134;-8.548;2023-03-04T07:57:13;101611.5;;;11.6;63.5
72124;BME280;63818;37.134;-8.548;2023-03-04T08:01:59;101620.7;;;11.6;63.4
72124;BME280;63818;37.134;-8.548;2023-03-04T08:06:46;101631.0;;;11.7;63.5
72124;BME280;63818;37.134;-8.548;2023-03-04T08:11:34;101635.6;;;11.7;62.7
72124;BME280;63818;37.134;-8.548;2023-03-04T08:16:22;101653.0;;;11.8;62.8
72124;BME280;63818;37.134;-8.548;2023-03-04T08:21:12;101651.0;;;11.9;62.6
72124;BME280;63818;37.134;-8.548;2023-03-04T08:26:01;101657.3;;;11.9;62.7
72124;BME280;63818;37.134;-8.548;2023-03-04T08:30:53;101665.8;;;12.0;63.0
72124;BME280;63818;37.134;-8.548;2023-03-04T08:35:47;101673.0;;;12.1;63.0
72124;BME280;63818;37.134;-8.548;2023-03-04T08:40:33;101675.2;;;12.1;63.2
72124;BME280;63818;37.134;-8.548;2023-03-04T08:45:19;101676.2;;;12.1;63.4
72124;BME280;63818;37.134;-8.548;2023-03-04T08:50:08;101681.3;;;12.1;63.4
72124;BME280;63818;37.134;-8.548;2023-03-04T08:54:54;101690.1;;;12.1;62.9
72124;BME280;63818;37.134;-8.548;2023-03-04T08:59:41;101685.2;;;12.2;63.1
72124;BME280;63818;37.134;-8.548;2023-03-04T09:04:33;101689.2;;;12.2;63.8
72124;BME280;63818;37.134;-8.548;2023-03-04T09:09:19;101692.9;;;12.3;64.4
72124;BME280;63818;37.134;-8.548;2023-03-04T09:14:05;101702.3;;;12.3;64.3
72124;BME280;63818;37.134;-8.548;2023-03-04T09:18:53;101699.8;;;12.4;64.5
72124;BME280;63818;37.134;-8.548;2023-03-04T09:23:39;101699.4;;;12.4;64.4
72124;BME280;63818;37.134;-8.548;2023-03-04T09:33:18;101711.7;;;12.5;64.0
72124;BME280;63818;37.134;-8.548;2023-03-04T09:38:07;101715.2;;;12.5;63.4
72124;BME280;63818;37.134;-8.548;2023-03-04T09:42:55;101714.3;;;12.5;63.0
72124;BME280;63818;37.134;-8.548;2023-03-04T09:47:44;101706.7;;;12.6;63.3
72124;BME280;63818;37.134;-8.548;2023-03-04T09:52:39;101695.0;;;12.6;61.7
72124;BME280;63818;37.134;-8.548;2023-03-04T09:57:43;101698.7;;;12.6;60.9
72124;BME280;63818;37.134;-8.548;2023-03-04T10:02:46;101691.5;;;12.6;61.2
72124;BME280;63818;37.134;-8.548;2023-03-04T10:07:39;101697.3;;;12.7;59.9
72124;BME280;63818;37.134;-8.548;2023-03-04T10:12:33;101688.6;;;12.7;58.6
72124;BME280;63818;37.134;-8.548;2023-03-04T10:17:22;101681.3;;;12.8;57.3
72124;BME280;63818;37.134;-8.548;2023-03-04T10:22:19;101674.5;;;12.8;57.6
72124;BME280;63818;37.134;-8.548;2023-03-04T10:27:21;101675.2;;;12.8;57.8
72124;BME280;63818;37.134;-8.548;2023-03-04T10:32:07;101668.6;;;12.9;59.4
72124;BME280;63818;37.134;-8.548;2023-03-04T10:37:05;101671.5;;;12.9;60.5
72124;BME280;63818;37.134;-8.548;2023-03-04T10:41:57;101683.6;;;12.9;60.7
72124;BME280;63818;37.134;-8.548;2023-03-04T10:46:51;101680.3;;;13.0;60.5
72124;BME280;63818;37.134;-8.548;2023-03-04T10:51:43;101667.6;;;13.0;60.7
72124;BME280;63818;37.134;-8.548;2023-03-04T10:56:34;101670.2;;;13.0;60.9
72124;BME280;63818;37.134;-8.548;2023-03-04T11:01:27;101670.6;;;13.1;61.1
72124;BME280;63818;37.134;-8.548;2023-03-04T11:06:19;101666.0;;;13.2;60.9
72124;BME280;63818;37.134;-8.548;2023-03-04T11:11:29;101664.8;;;13.2;59.1
72124;BME280;63818;37.134;-8.548;2023-03-04T11:16:24;101662.8;;;13.3;59.9
72124;BME280;63818;37.134;-8.548;2023-03-04T11:21:16;101662.0;;;13.4;59.3
72124;BME280;63818;37.134;-8.548;2023-03-04T11:26:07;101665.7;;;13.4;58.2
72124;BME280;63818;37.134;-8.548;2023-03-04T11:35:53;101664.5;;;13.5;56.8
72124;BME280;63818;37.134;-8.548;2023-03-04T11:40:43;101667.8;;;13.4;56.2
72124;BME280;63818;37.134;-8.548;2023-03-04T11:45:50;101665.1;;;13.4;54.7
72124;BME280;63818;37.134;-8.548;2023-03-04T11:50:44;101662.0;;;13.5;54.7
72124;BME280;63818;37.134;-8.548;2023-03-04T11:55:39;101648.9;;;13.6;53.0
72124;BME280;63818;37.134;-8.548;2023-03-04T12:00:35;101637.9;;;13.8;52.5
72124;BME280;63818;37.134;-8.548;2023-03-04T12:05:38;101630.0;;;13.9;50.7
72124;BME280;63818;37.134;-8.548;2023-03-04T12:10:32;101622.1;;;14.1;50.0
72124;BME280;63818;37.134;-8.548;2023-03-04T12:15:27;101625.5;;;14.1;49.6
72124;BME280;63818;37.134;-8.548;2023-03-04T12:20:29;101609.0;;;14.1;47.8
72124;BME280;63818;37.134;-8.548;2023-03-04T12:25:24;101613.6;;;14.1;47.2
72124;BME280;63818;37.134;-8.548;2023-03-04T12:30:23;101619.1;;;14.1;48.5
72124;BME280;63818;37.134;-8.548;2023-03-04T12:35:46;101612.3;;;14.2;50.0
72124;BME280;63818;37.134;-8.548;2023-03-04T12:40:46;101617.9;;;14.2;51.0
72124;BME280;63818;37.134;-8.548;2023-03-04T12:45:38;101621.7;;;14.2;51.6
72124;BME280;63818;37.134;-8.548;2023-03-04T12:55:35;101612.8;;;14.1;54.2
72124;BME280;63818;37.134;-8.548;2023-03-04T13:00:30;101598.0;;;14.1;54.8
72124;BME280;63818;37.134;-8.548;2023-03-04T13:05:29;101600.4;;;14.1;54.8
72124;BME280;63818;37.134;-8.548;2023-03-04T13:10:18;101587.1;;;14.1;56.3
72124;BME280;63818;37.134;-8.548;2023-03-04T13:15:31;101585.9;;;14.1;56.2
72124;BME280;63818;37.134;-8.548;2023-03-04T13:20:24;101573.6;;;14.2;54.7
72124;BME280;63818;37.134;-8.548;2023-03-04T13:25:40;101571.2;;;14.3;55.9
72124;BME280;63818;37.134;-8.548;2023-03-04T13:31:09;101576.2;;;14.4;57.3
72124;BME280;63818;37.134;-8.548;2023-03-04T13:36:00;101588.2;;;14.6;57.7
72124;BME280;63818;37.134;-8.548;2023-03-04T13:41:10;101581.5;;;14.6;58.1
72124;BME280;63818;37.134;-8.548;2023-03-04T13:45:56;101572.1;;;14.6;58.1
72124;BME280;63818;37.134;-8.548;2023-03-04T13:50:45;101556.2;;;14.5;58.9
72124;BME280;63818;37.134;-8.548;2023-03-04T13:55:36;101558.5;;;14.6;59.1
72124;BME280;63818;37.134;-8.548;2023-03-04T14:00:24;101551.5;;;14.7;59.5
72124;BME280;63818;37.134;-8.548;2023-03-04T14:05:11;101552.8;;;14.7;60.1
72124;BME280;63818;37.134;-8.548;2023-03-04T14:09:59;101549.0;;;14.7;60.2
72124;BME280;63818;37.134;-8.548;2023-03-04T14:14:48;101545.0;;;14.8;60.1
72124;BME280;63818;37.134;-8.548;2023-03-04T14:19:42;101556.5;;;14.8;60.5
72124;BME280;63818;37.134;-8.548;2023-03-04T14:24:28;101546.9;;;14.9;60.7
72124;BME280;63818;37.134;-8.548;2023-03-04T14:29:25;101535.0;;;14.9;60.9
72124;BME280;63818;37.134;-8.548;2023-03-04T14:34:18;101550.7;;;14.9;61.0
72124;BME280;63818;37.134;-8.548;2023-03-04T14:39:06;101548.5;;;14.9;61.2
72124;BME280;63818;37.134;-8.548;2023-03-04T14:43:57;101536.3;;;14.9;61.4
72124;BME280;63818;37.134;-8.548;2023-03-04T14:48:50;101529.1;;;15.0;60.8
72124;BME280;63818;37.134;-8.548;2023-03-04T14:53:53;101524.7;;;15.1;60.8
72124;BME280;63818;37.134;-8.548;2023-03-04T14:58:55;101524.5;;;15.1;60.5
72124;BME280;63818;37.134;-8.548;2023-03-04T15:03:54;101514.6;;;15.1;60.4
72124;BME280;63818;37.134;-8.548;2023-03-04T15:13:41;101507.3;;;15.5;59.8
72124;BME280;63818;37.134;-8.548;2023-03-04T15:18:28;101512.9;;;15.4;59.9
72124;BME280;63818;37.134;-8.548;2023-03-04T15:23:14;101518.6;;;15.3;60.8
72124;BME280;63818;37.134;-8.548;2023-03-04T15:28:08;101515.5;;;15.2;61.5
72124;BME280;63818;37.134;-8.548;2023-03-04T15:33:01;101513.5;;;15.2;62.1
72124;BME280;63818;37.134;-8.548;2023-03-04T15:37:50;101530.7;;;15.2;62.5
72124;BME280;63818;37.134;-8.548;2023-03-04T15:42:36;101536.8;;;15.3;62.4
72124;BME280;63818;37.134;-8.548;2023-03-04T15:47:25;101529.8;;;15.3;62.4
72124;BME280;63818;37.134;-8.548;2023-03-04T15:52:15;101529.9;;;15.4;62.5
72124;BME280;63818;37.134;-8.548;2023-03-04T15:57:19;101540.0;;;15.6;62.9
72124;BME280;63818;37.134;-8.548;2023-03-04T16:02:09;101536.6;;;16.0;62.4
72124;BME280;63818;37.134;-8.548;2023-03-04T16:07:00;101530.9;;;16.1;61.8
72124;BME280;63818;37.134;-8.548;2023-03-04T16:11:50;101523.9;;;16.1;62.2
72124;BME280;63818;37.134;-8.548;2023-03-04T16:16:36;101514.8;;;16.6;60.6
72124;BME280;63818;37.134;-8.548;2023-03-04T16:21:25;101515.6;;;16.5;60.2
72124;BME280;63818;37.134;-8.548;2023-03-04T16:26:24;101514.1;;;16.4;60.8
72124;BME280;63818;37.134;-8.548;2023-03-04T16:31:11;101512.9;;;16.3;61.2
72124;BME280;63818;37.134;-8.548;2023-03-04T16:36:13;101528.3;;;16.0;62.2
72124;BME280;63818;37.134;-8.548;2023-03-04T16:41:01;101529.8;;;15.7;63.0
72124;BME280;63818;37.134;-8.548;2023-03-04T16:45:47;101526.6;;;15.6;64.2
72124;BME280;63818;37.134;-8.548;2023-03-04T16:50:36;101533.9;;;15.5;64.7
72124;BME280;63818;37.134;-8.548;2023-03-04T16:55:26;101533.9;;;15.4;65.5
72124;BME280;63818;37.134;-8.548;2023-03-04T17:00:17;101542.8;;;15.3;65.8
72124;BME280;63818;37.134;-8.548;2023-03-04T17:05:06;101550.6;;;15.2;66.6
72124;BME280;63818;37.134;-8.548;2023-03-04T17:09:52;101555.7;;;15.2;67.0
72124;BME280;63818;37.134;-8.548;2023-03-04T17:14:42;101557.3;;;15.1;67.0
72124;BME280;63818;37.134;-8.548;2023-03-04T17:19:35;101558.3;;;15.1;67.6
72124;BME280;63818;37.134;-8.548;2023-03-04T17:24:21;101564.3;;;15.0;67.6
72124;BME280;63818;37.134;-8.548;2023-03-04T17:29:07;101561.6;;;15.0;68.1
72124;BME280;63818;37.134;-8.548;2023-03-04T17:33:56;101559.2;;;15.0;68.7
72124;BME280;63818;37.134;-8.548;2023-03-04T17:38:42;101560.3;;;15.0;68.9
72124;BME280;63818;37.134;-8.548;2023-03-04T17:43:35;101560.6;;;15.0;69.5
72124;BME280;63818;37.134;-8.548;2023-03-04T17:48:20;101564.0;;;14.9;69.6
72124;BME280;63818;37.134;-8.548;2023-03-04T17:53:07;101564.3;;;14.9;69.3
72124;BME280;63818;37.134;-8.548;2023-03-04T17:57:55;101564.9;;;14.9;69.6
72124;BME280;63818;37.134;-8.548;2023-03-04T18:02:40;101562.8;;;14.9;69.7
72124;BME280;63818;37.134;-8.548;2023-03-04T18:07:26;101558.9;;;14.9;70.2
72124;BME280;63818;37.134;-8.548;2023-03-04T18:12:14;101554.1;;;14.8;70.2
72124;BME280;63818;37.134;-8.548;2023-03-04T18:17:00;101551.4;;;14.8;70.3
72124;BME280;63818;37.134;-8.548;2023-03-04T18:21:51;101555.2;;;14.8;71.0
72124;BME280;63818;37.134;-8.548;2023-03-04T18:26:37;101546.9;;;14.8;71.0
72124;BME280;63818;37.134;-8.548;2023-03-04T18:31:27;101534.0;;;14.7;71.1
72124;BME280;63818;37.134;-8.548;2023-03-04T18:36:22;101544.3;;;14.7;71.5
72124;BME280;63818;37.134;-8.548;2023-03-04T18:41:10;101541.2;;;14.7;72.0
72124;BME280;63818;37.134;-8.548;2023-03-04T18:46:05;101551.2;;;14.7;71.9
72124;BME280;63818;37.134;-8.548;2023-03-04T18:50:51;101555.8;;;14.7;72.3
72124;BME280;63818;37.134;-8.548;2023-03-04T18:55:38;101564.2;;;14.7;73.1
72124;BME280;63818;37.134;-8.548;2023-03-04T19:00:24;101578.9;;;14.7;73.1
72124;BME280;63818;37.134;-8.548;2023-03-04T19:05:13;101583.8;;;14.6;73.2
72124;BME280;63818;37.134;-8.548;2023-03-04T19:10:01;101613.0;;;14.6;73.4
72124;BME280;63818;37.134;-8.548;2023-03-04T19:14:47;101605.2;;;14.6;73.8
72124;BME280;63818;37.134;-8.548;2023-03-04T19:19:33;101598.2;;;14.6;74.4
72124;BME280;63818;37.134;-8.548;2023-03-04T19:24:19;101589.7;;;14.6;74.5
72124;BME280;63818;37.134;-8.548;2023-03-04T19:29:05;101586.5;;;14.6;75.0
72124;BME280;63818;37.134;-8.548;2023-03-04T19:33:54;101579.8;;;14.5;74.9
72124;BME280;63818;37.134;-8.548;2023-03-04T19:38:40;101578.2;;;14.5;75.3
72124;BME280;63818;37.134;-8.548;2023-03-04T19:43:26;101584.4;;;14.5;75.3
72124;BME280;63818;37.134;-8.548;2023-03-04T19:48:13;101580.9;;;14.5;75.8
72124;BME280;63818;37.134;-8.548;2023-03-04T19:52:59;101572.3;;;14.5;75.8
72124;BME280;63818;37.134;-8.548;2023-03-04T19:57:44;101582.3;;;14.5;76.1
72124;BME280;63818;37.134;-8.548;2023-03-04T20:02:30;101592.3;;;14.5;76.2
72124;BME280;63818;37.134;-8.548;2023-03-04T20:07:16;101597.2;;;14.5;76.4
72124;BME280;63818;37.134;-8.548;2023-03-04T20:12:05;101600.3;;;14.5;76.2
72124;BME280;63818;37.134;-8.548;2023-03-04T20:16:51;101609.5;;;14.4;76.7
72124;BME280;63818;37.134;-8.548;2023-03-04T20:21:37;101603.6;;;14.4;76.8
72124;BME280;63818;37.134;-8.548;2023-03-04T20:26:23;101603.9;;;14.4;76.8
72124;BME280;63818;37.134;-8.548;2023-03-04T20:31:15;101600.4;;;14.4;76.8
72124;BME280;63818;37.134;-8.548;2023-03-04T20:36:03;101589.2;;;14.4;76.9
72124;BME280;63818;37.134;-8.548;2023-03-04T20:40:49;101601.2;;;14.4;76.4
72124;BME280;63818;37.134;-8.548;2023-03-04T20:45:35;101606.6;;;14.4;76.3
72124;BME280;63818;37.134;-8.548;2023-03-04T20:50:21;101600.4;;;14.4;76.3
72124;BME280;63818;37.134;-8.548;2023-03-04T20:55:08;101610.4;;;14.4;76.1
72124;BME280;63818;37.134;-8.548;2023-03-04T20:59:54;101607.4;;;14.4;75.8
72124;BME280;63818;37.134;-8.548;2023-03-04T21:04:40;101598.5;;;14.4;75.3
72124;BME280;63818;37.134;-8.548;2023-03-04T21:09:26;101607.2;;;14.4;75.2
72124;BME280;63818;37.134;-8.548;2023-03-04T21:14:14;101604.0;;;14.4;74.9
72124;BME280;63818;37.134;-8.548;2023-03-04T21:19:03;101620.5;;;14.4;74.8
72124;BME280;63818;37.134;-8.548;2023-03-04T21:23:51;101616.5;;;14.3;74.5
72124;BME280;63818;37.134;-8.548;2023-03-04T21:28:45;101605.2;;;14.3;74.1
72124;BME280;63818;37.134;-8.548;2023-03-04T21:33:34;101601.2;;;14.3;73.9
72124;BME280;63818;37.134;-8.548;2023-03-04T21:38:20;101601.9;;;14.2;73.7
72124;BME280;63818;37.134;-8.548;2023-03-04T21:43:08;101594.5;;;14.2;73.9
72124;BME280;63818;37.134;-8.548;2023-03-04T21:47:55;101594.5;;;14.2;73.7
72124;BME280;63818;37.134;-8.548;2023-03-04T21:52:43;101583.3;;;14.2;74.1
72124;BME280;63818;37.134;-8.548;2023-03-04T21:57:29;101585.5;;;14.2;74.8
72124;BME280;63818;37.134;-8.548;2023-03-04T22:02:17;101602.8;;;14.2;75.6
72124;BME280;63818;37.134;-8.548;2023-03-04T22:07:04;101595.8;;;14.2;76.6
72124;BME280;63818;37.134;-8.548;2023-03-04T22:11:52;101606.1;;;14.2;77.5
72124;BME280;63818;37.134;-8.548;2023-03-04T22:16:42;101614.5;;;14.1;77.9
72124;BME280;63818;37.134;-8.548;2023-03-04T22:21:28;101613.7;;;14.1;78.9
72124;BME280;63818;37.134;-8.548;2023-03-04T22:26:15;101612.0;;;14.1;78.9
72124;BME280;63818;37.134;-8.548;2023-03-04T22:31:16;101613.4;;;14.1;79.3
72124;BME280;63818;37.134;-8.548;2023-03-04T22:36:04;101612.6;;;14.1;79.6
72124;BME280;63818;37.134;-8.548;2023-03-04T22:40:50;101609.7;;;14.0;79.4
72124;BME280;63818;37.134;-8.548;2023-03-04T22:45:36;101604.6;;;14.0;79.4
72124;BME280;63818;37.134;-8.548;2023-03-04T22:50:22;101606.3;;;14.0;79.6
72124;BME280;63818;37.134;-8.548;2023-03-04T22:55:14;101601.2;;;14.0;79.8
72124;BME280;63818;37.134;-8.548;2023-03-04T23:00:01;101595.8;;;14.0;79.9
72124;BME280;63818;37.134;-8.548;2023-03-04T23:04:47;101591.0;;;13.9;79.6
72124;BME280;63818;37.134;-8.548;2023-03-04T23:09:33;101591.0;;;13.9;80.2
72124;BME280;63818;37.134;-8.548;2023-03-04T23:14:19;101584.0;;;13.9;79.8
72124;BME280;63818;37.134;-8.548;2023-03-04T23:19:05;101599.2;;;13.9;79.8
72124;BME280;63818;37.134;-8.548;2023-03-04T23:23:54;101601.5;;;13.9;79.3
72124;BME280;63818;37.134;-8.548;2023-03-04T23:28:40;101593.5;;;13.8;79.4
72124;BME280;63818;37.134;-8.548;2023-03-04T23:33:26;101586.5;;;13.8;79.2
72124;BME280;63818;37.134;-8.548;2023-03-04T23:38:12;101579.5;;;13.8;79.4
72124;BME280;63818;37.134;-8.548;2023-03-04T23:43:00;101583.9;;;13.8;79.3
72124;BME280;63818;37.134;-8.548;2023-03-04T23:47:46;101580.6;;;13.7;79.2
72124;BME280;63818;37.134;-8.548;2023-03-04T23:52:32;101586.0;;;13.6;79.4
72124;BME280;63818;37.134;-8.548;2023-03-04T23:57:20;101584.3;;;13.6;79.8
